Time;durP1;ratioP1;P1;durP2;ratioP2;P2;SDS_P1;SDS_P2;PMS_P1;PMS_P2;Temp;Humidity;BMP_temperature;BMP_pressure;BME280_temperature;BME280_humidity;BME280_pressure;Samples;Min_cycle;Max_cycle;Signal;HPM_P1;HPM_P2
2021/01/27 00:00:28;;;;;;;1.65;1.40;;;5.20;68.50;;;;;;5026191;28;20040;-75
2021/01/27 00:02:54;;;;;;;2.17;1.58;;;5.20;68.50;;;;;;5019747;28;20039;-75
2021/01/27 00:05:25;;;;;;;2.00;1.67;;;5.20;68.50;;;;;;5009039;28;20025;-75
2021/01/27 00:07:51;;;;;;;1.75;1.15;;;5.10;68.50;;;;;;5006690;28;20088;-74
2021/01/27 00:10:17;;;;;;;1.85;1.65;;;5.10;68.50;;;;;;5009520;28;20047;-76
2021/01/27 00:12:43;;;;;;;2.20;1.67;;;5.10;68.50;;;;;;5020732;28;20399;-75
2021/01/27 00:15:13;;;;;;;1.35;1.13;;;5.10;68.50;;;;;;4990472;28;20045;-75
2021/01/27 00:17:39;;;;;;;2.20;1.63;;;5.00;68.50;;;;;;5005552;28;20038;-75
2021/01/27 00:20:07;;;;;;;2.00;1.20;;;5.10;68.50;;;;;;5013932;28;20501;-75
2021/01/27 00:22:33;;;;;;;1.90;1.50;;;5.00;68.50;;;;;;5020534;28;20099;-74
2021/01/27 00:24:58;;;;;;;2.08;1.73;;;5.00;68.50;;;;;;5026941;28;20032;-76
2021/01/27 00:27:24;;;;;;;1.80;1.48;;;4.90;68.50;;;;;;5026075;28;20087;-74
2021/01/27 00:29:49;;;;;;;2.60;1.63;;;4.90;68.60;;;;;;5016909;28;20398;-74
2021/01/27 00:32:14;;;;;;;1.52;1.38;;;4.90;68.70;;;;;;5002254;28;20108;-75
2021/01/27 00:34:40;;;;;;;2.05;1.77;;;4.80;68.70;;;;;;5016903;28;20038;-75
2021/01/27 00:37:05;;;;;;;1.98;1.45;;;4.90;68.90;;;;;;5025313;28;20037;-74
2021/01/27 00:39:31;;;;;;;1.85;1.58;;;4.90;69.00;;;;;;5022326;28;20025;-75
2021/01/27 00:41:56;;;;;;;2.05;1.80;;;4.80;69.00;;;;;;5026673;28;20022;-75
2021/01/27 00:44:22;;;;;;;2.88;2.00;;;4.80;69.00;;;;;;5026072;28;20029;-75
2021/01/27 00:46:48;;;;;;;2.08;1.80;;;4.90;69.20;;;;;;5024934;28;20594;-75
2021/01/27 00:49:13;;;;;;;3.08;2.08;;;5.00;69.30;;;;;;5028382;28;20032;-74
2021/01/27 00:51:39;;;;;;;2.17;1.85;;;4.90;69.90;;;;;;5029511;28;20034;-73
2021/01/27 00:54:04;;;;;;;2.88;2.20;;;4.90;69.40;;;;;;5025284;28;20116;-75
2021/01/27 00:56:30;;;;;;;3.38;2.22;;;4.90;69.50;;;;;;5014375;28;20092;-75
2021/01/27 00:58:55;;;;;;;2.78;2.17;;;5.00;69.60;;;;;;5016462;28;20171;-76
2021/01/27 01:01:21;;;;;;;2.70;2.10;;;5.00;69.60;;;;;;5019269;28;20042;-75
2021/01/27 01:03:46;;;;;;;3.35;2.25;;;5.00;69.70;;;;;;5029023;28;20044;-75
2021/01/27 01:06:12;;;;;;;3.08;2.78;;;5.00;69.60;;;;;;5029972;28;20597;-75
2021/01/27 01:08:37;;;;;;;3.53;2.40;;;5.10;69.70;;;;;;5024065;28;20033;-74
2021/01/27 01:11:03;;;;;;;2.83;2.53;;;5.10;69.70;;;;;;5028062;28;20502;-75
2021/01/27 01:13:31;;;;;;;4.10;2.85;;;5.10;69.70;;;;;;5009502;28;20058;-75
2021/01/27 01:15:56;;;;;;;3.22;2.70;;;5.20;69.70;;;;;;5011739;28;20026;-74
2021/01/27 01:18:23;;;;;;;2.88;2.60;;;5.10;69.70;;;;;;5004632;28;20117;-75
2021/01/27 01:20:49;;;;;;;3.65;2.38;;;5.20;69.70;;;;;;5011748;28;20117;-75
2021/01/27 01:23:17;;;;;;;3.22;2.10;;;5.20;69.60;;;;;;5015712;28;20474;-75
2021/01/27 01:25:42;;;;;;;3.85;3.08;;;5.20;69.60;;;;;;5028390;28;20034;-75
2021/01/27 01:28:08;;;;;;;2.97;2.63;;;5.30;69.60;;;;;;5007723;28;20030;-74
2021/01/27 01:30:37;;;;;;;4.85;3.92;;;5.30;69.60;;;;;;5009728;28;20096;-75
2021/01/27 01:33:05;;;;;;;2.70;2.47;;;5.30;69.60;;;;;;5011946;28;20117;-73
2021/01/27 01:35:32;;;;;;;3.10;2.50;;;5.30;69.60;;;;;;5013766;28;20084;-74
2021/01/27 01:37:58;;;;;;;4.70;2.33;;;5.30;69.60;;;;;;4984321;28;20038;-76
2021/01/27 01:40:26;;;;;;;3.70;3.13;;;5.40;69.70;;;;;;5012824;28;20064;-75
2021/01/27 01:43:09;;;;;;;3.88;3.47;;;5.40;69.70;;;;;;5011937;28;20033;-75
2021/01/27 01:45:47;;;;;;;3.40;3.08;;;5.40;69.80;;;;;;5012026;28;20066;-75
2021/01/27 01:48:40;;;;;;;2.97;2.67;;;5.40;69.60;;;;;;5013277;28;20034;-75
2021/01/27 01:51:14;;;;;;;4.50;3.15;;;5.40;69.60;;;;;;5011375;28;20120;-75
2021/01/27 01:53:40;;;;;;;4.25;3.33;;;5.50;69.70;;;;;;5012145;28;20038;-75
2021/01/27 01:56:10;;;;;;;3.53;2.88;;;5.40;69.50;;;;;;5012925;28;20132;-76
2021/01/27 01:58:37;;;;;;;3.92;2.80;;;5.50;69.60;;;;;;5013674;28;20049;-77
2021/01/27 02:01:03;;;;;;;4.47;3.85;;;5.50;69.50;;;;;;5012943;28;20045;-74
2021/01/27 02:03:31;;;;;;;3.75;3.00;;;5.40;69.50;;;;;;5010062;28;20033;-75
2021/01/27 02:05:58;;;;;;;3.47;3.17;;;5.40;69.50;;;;;;5013424;28;20534;-74
2021/01/27 02:08:24;;;;;;;4.15;3.60;;;5.50;69.60;;;;;;5011363;28;20090;-75
2021/01/27 02:10:50;;;;;;;4.93;4.22;;;5.40;69.60;;;;;;5014119;28;20572;-75
2021/01/27 02:13:28;;;;;;;3.53;3.13;;;5.50;69.60;;;;;;5011167;28;20034;-75
2021/01/27 02:16:05;;;;;;;3.63;3.22;;;5.50;69.70;;;;;;5005900;28;20125;-75
2021/01/27 02:19:02;;;;;;;4.72;3.72;;;5.50;69.70;;;;;;5009883;28;20038;-75
2021/01/27 02:21:48;;;;;;;4.90;3.50;;;5.50;70.00;;;;;;5010979;28;20037;-75
2021/01/27 02:24:46;;;;;;;4.45;3.72;;;5.50;69.90;;;;;;5008996;28;20034;-75
2021/01/27 02:27:36;;;;;;;5.43;3.55;;;5.50;70.10;;;;;;5011126;28;20026;-75
2021/01/27 02:30:21;;;;;;;4.60;4.13;;;5.60;70.20;;;;;;5008488;28;20041;-75
2021/01/27 02:32:59;;;;;;;4.25;3.70;;;5.60;70.00;;;;;;5009733;28;20040;-75
2021/01/27 02:35:32;;;;;;;3.78;3.38;;;5.70;70.00;;;;;;5008490;28;20399;-74
2021/01/27 02:38:17;;;;;;;4.95;4.38;;;5.70;70.00;;;;;;5005676;28;20124;-75
2021/01/27 02:40:52;;;;;;;4.72;4.00;;;5.70;70.30;;;;;;5028092;28;20060;-75
2021/01/27 02:43:40;;;;;;;5.72;4.13;;;5.80;70.10;;;;;;5027707;28;20025;-75
2021/01/27 02:46:36;;;;;;;5.35;4.30;;;5.80;70.10;;;;;;5013087;28;20152;-75
2021/01/27 02:49:34;;;;;;;4.07;3.63;;;5.80;70.10;;;;;;5009013;28;20091;-74
2021/01/27 02:52:14;;;;;;;5.10;4.30;;;5.80;70.20;;;;;;5021640;28;20124;-74
2021/01/27 02:54:45;;;;;;;5.20;4.20;;;5.90;70.40;;;;;;5025661;28;20493;-75
2021/01/27 02:57:18;;;;;;;5.32;4.20;;;5.90;69.90;;;;;;5028246;28;20524;-75
2021/01/27 02:59:52;;;;;;;5.70;4.40;;;5.90;69.80;;;;;;5032468;22;20041;-75
2021/01/27 03:02:31;;;;;;;5.78;4.07;;;5.90;69.90;;;;;;5031615;28;20029;-76
2021/01/27 03:05:17;;;;;;;5.30;4.20;;;5.90;69.80;;;;;;5047642;28;20024;-75
2021/01/27 03:07:47;;;;;;;4.55;4.05;;;5.90;69.90;;;;;;5036860;28;20112;-75
2021/01/27 03:10:42;;;;;;;6.25;4.32;;;6.00;69.70;;;;;;5029336;28;20029;-76
2021/01/27 03:13:09;;;;;;;5.32;4.22;;;5.90;69.90;;;;;;5026592;28;20026;-76
2021/01/27 03:15:37;;;;;;;5.75;4.88;;;6.00;69.50;;;;;;5019486;28;20087;-75
2021/01/27 03:18:03;;;;;;;5.18;4.47;;;5.90;69.40;;;;;;5013075;28;20030;-75
2021/01/27 03:20:33;;;;;;;5.53;4.55;;;6.00;69.40;;;;;;5024539;28;20083;-75
2021/01/27 03:23:20;;;;;;;7.90;4.87;;;5.90;69.40;;;;;;5021337;28;20038;-77
2021/01/27 03:26:05;;;;;;;6.53;4.57;;;5.90;69.40;;;;;;5026197;28;20030;-75
2021/01/27 03:28:54;;;;;;;4.60;4.07;;;5.90;69.40;;;;;;5025890;28;20433;-75
2021/01/27 03:31:20;;;;;;;5.47;4.45;;;5.90;69.50;;;;;;5019889;28;20029;-75
2021/01/27 03:33:53;;;;;;;6.40;4.68;;;5.90;69.90;;;;;;5015869;28;20039;-75
2021/01/27 03:36:18;;;;;;;4.82;4.00;;;5.90;69.40;;;;;;5027544;28;20389;-75
2021/01/27 03:38:50;;;;;;;5.30;4.55;;;5.90;69.40;;;;;;5016278;28;20075;-75
2021/01/27 03:41:33;;;;;;;5.63;4.55;;;5.80;69.40;;;;;;5027227;28;20106;-77
2021/01/27 03:44:07;;;;;;;4.60;4.05;;;5.80;69.50;;;;;;5014337;28;20224;-74
2021/01/27 03:46:45;;;;;;;4.43;3.95;;;5.80;69.40;;;;;;5024096;28;20050;-75
2021/01/27 03:49:25;;;;;;;6.07;4.90;;;5.80;69.50;;;;;;5027105;28;20547;-76
2021/01/27 03:52:17;;;;;;;6.00;4.72;;;5.80;69.60;;;;;;5027443;28;20444;-75
2021/01/27 03:54:48;;;;;;;5.90;4.70;;;5.80;70.40;;;;;;5024837;28;20100;-75
2021/01/27 03:57:19;;;;;;;5.75;4.75;;;5.80;69.70;;;;;;5013430;28;20038;-76
2021/01/27 03:59:48;;;;;;;7.18;4.63;;;5.80;69.70;;;;;;5025618;28;20041;-75
2021/01/27 04:02:16;;;;;;;5.05;4.40;;;5.70;69.70;;;;;;5016516;28;20029;-75
2021/01/27 04:04:42;;;;;;;6.35;5.28;;;5.80;69.70;;;;;;5023578;28;20041;-75
2021/01/27 04:07:08;;;;;;;6.70;5.03;;;5.80;69.70;;;;;;5025834;28;20379;-75
2021/01/27 04:09:33;;;;;;;6.85;5.00;;;5.80;69.70;;;;;;5023219;28;20032;-76
2021/01/27 04:11:59;;;;;;;5.53;4.72;;;5.80;69.70;;;;;;5028107;28;20079;-75
2021/01/27 04:14:24;;;;;;;5.50;4.57;;;5.80;69.70;;;;;;5026489;28;20022;-76
2021/01/27 04:16:50;;;;;;;4.75;4.28;;;5.80;69.70;;;;;;5015887;28;20096;-77
2021/01/27 04:19:15;;;;;;;5.07;4.00;;;5.80;69.70;;;;;;5024198;28;20036;-76
2021/01/27 04:21:42;;;;;;;5.65;5.05;;;5.80;69.70;;;;;;5035906;28;20046;-75
2021/01/27 04:24:07;;;;;;;6.05;4.50;;;5.80;69.70;;;;;;5021597;28;20033;-75
2021/01/27 04:26:34;;;;;;;6.90;5.38;;;5.80;69.70;;;;;;5021087;28;20029;-75
2021/01/27 04:29:00;;;;;;;5.18;4.65;;;5.80;69.70;;;;;;5026921;28;20037;-76
2021/01/27 04:31:25;;;;;;;5.40;4.63;;;5.80;69.70;;;;;;5025255;28;20025;-77
2021/01/27 04:33:51;;;;;;;5.80;4.75;;;5.80;69.70;;;;;;5030683;28;20536;-76
2021/01/27 04:36:17;;;;;;;5.05;4.55;;;5.80;69.60;;;;;;5030467;28;20116;-75
2021/01/27 04:38:42;;;;;;;5.15;4.57;;;5.80;69.60;;;;;;5019567;28;20053;-75
2021/01/27 04:41:09;;;;;;;6.00;5.15;;;5.80;69.60;;;;;;5023023;28;20032;-75
2021/01/27 04:43:35;;;;;;;6.22;5.35;;;5.80;70.10;;;;;;5029928;28;20080;-75
2021/01/27 04:46:16;;;;;;;7.25;5.70;;;5.80;69.60;;;;;;5030813;28;20022;-75
2021/01/27 04:49:01;;;;;;;6.28;4.75;;;5.80;69.70;;;;;;5014701;28;20101;-72
2021/01/27 04:51:46;;;;;;;6.35;4.35;;;5.80;69.90;;;;;;5029310;28;20037;-76
2021/01/27 04:54:37;;;;;;;6.63;5.53;;;5.80;69.70;;;;;;5022934;28;20033;-76
2021/01/27 04:57:18;;;;;;;8.05;4.78;;;5.80;69.80;;;;;;4991288;28;20026;-76
2021/01/27 04:59:49;;;;;;;5.20;4.70;;;5.80;70.00;;;;;;5021997;28;20507;-75
2021/01/27 05:02:49;;;;;;;6.13;4.47;;;5.80;69.70;;;;;;5018217;28;20038;-75
2021/01/27 05:05:22;;;;;;;5.10;4.57;;;5.80;69.90;;;;;;5020733;28;20422;-75
2021/01/27 05:07:56;;;;;;;4.65;4.07;;;5.80;69.70;;;;;;5024776;28;20454;-76
2021/01/27 05:10:25;;;;;;;5.22;4.75;;;5.80;69.70;;;;;;5029861;28;20029;-76
2021/01/27 05:13:03;;;;;;;5.07;3.85;;;5.80;69.70;;;;;;5029884;28;20083;-76
2021/01/27 05:15:29;;;;;;;7.15;4.95;;;5.80;69.70;;;;;;5028266;28;20030;-75
2021/01/27 05:17:55;;;;;;;6.18;5.28;;;5.80;69.50;;;;;;5022266;28;20387;-76
2021/01/27 05:20:21;;;;;;;6.07;5.03;;;5.80;69.50;;;;;;5029592;28;20045;-74
2021/01/27 05:22:48;;;;;;;5.70;4.63;;;5.80;69.60;;;;;;5024132;28;20038;-74
2021/01/27 05:25:35;;;;;;;5.75;4.90;;;5.80;69.60;;;;;;5029453;28;20029;-74
2021/01/27 05:28:03;;;;;;;5.18;4.38;;;5.80;69.80;;;;;;5017357;28;20486;-76
2021/01/27 05:30:37;;;;;;;6.70;4.82;;;5.80;69.60;;;;;;5028426;28;20025;-74
2021/01/27 05:33:03;;;;;;;5.85;4.97;;;5.80;69.60;;;;;;5025318;28;20498;-75
2021/01/27 05:35:38;;;;;;;5.05;4.55;;;5.80;69.60;;;;;;5027909;28;20026;-74
2021/01/27 05:38:27;;;;;;;6.30;4.82;;;5.80;69.70;;;;;;5024507;28;20184;-75
2021/01/27 05:41:05;;;;;;;5.03;4.40;;;5.80;69.80;;;;;;5015194;28;20041;-76
2021/01/27 05:43:32;;;;;;;6.65;5.00;;;5.80;69.70;;;;;;5028545;28;20029;-76
2021/01/27 05:46:10;;;;;;;6.60;4.65;;;5.80;69.50;;;;;;5017150;28;20033;-76
2021/01/27 05:48:50;;;;;;;5.40;4.80;;;5.80;69.70;;;;;;5028085;28;20726;-76
2021/01/27 05:51:28;;;;;;;6.00;4.60;;;5.80;69.60;;;;;;5028960;28;20064;-77
2021/01/27 05:53:54;;;;;;;4.78;4.28;;;5.80;69.50;;;;;;5014367;28;20121;-75
2021/01/27 05:56:22;;;;;;;5.95;4.30;;;5.80;69.40;;;;;;5029172;28;20116;-76
2021/01/27 05:59:07;;;;;;;5.07;4.40;;;5.80;69.40;;;;;;5017214;28;20048;-76
2021/01/27 06:01:44;;;;;;;5.40;4.53;;;5.80;69.50;;;;;;5007209;28;20026;-76
2021/01/27 06:04:09;;;;;;;6.60;5.00;;;5.70;69.20;;;;;;5013232;28;20042;-76
2021/01/27 06:06:37;;;;;;;5.97;3.92;;;5.80;69.20;;;;;;5027968;28;20662;-76
2021/01/27 06:09:05;;;;;;;5.18;4.53;;;5.70;69.10;;;;;;5023625;28;20088;-76
2021/01/27 06:11:32;;;;;;;6.38;4.47;;;5.70;69.10;;;;;;5027850;28;20041;-77
2021/01/27 06:14:21;;;;;;;5.53;4.10;;;5.60;69.00;;;;;;5028395;28;20041;-76
2021/01/27 06:16:49;;;;;;;5.68;4.78;;;5.60;69.20;;;;;;5019249;28;20076;-76
2021/01/27 06:19:22;;;;;;;5.32;3.47;;;5.60;69.00;;;;;;5028417;28;20026;-76
2021/01/27 06:22:09;;;;;;;5.22;4.28;;;5.60;69.00;;;;;;5001075;28;20043;-76
2021/01/27 06:25:01;;;;;;;4.72;3.72;;;5.60;69.10;;;;;;5025343;28;20034;-75
2021/01/27 06:28:04;;;;;;;4.85;3.90;;;5.60;69.10;;;;;;5027594;28;20485;-76
2021/01/27 06:30:53;;;;;;;8.52;4.13;;;5.50;69.00;;;;;;5015874;28;20027;-77
2021/01/27 06:33:44;;;;;;;5.43;4.10;;;5.50;68.90;;;;;;5028642;28;20029;-77
2021/01/27 06:36:35;;;;;;;4.93;4.07;;;5.40;68.90;;;;;;5019140;28;20128;-77
2021/01/27 06:39:47;;;;;;;6.85;4.20;;;5.40;69.00;;;;;;5016081;28;20025;-77
2021/01/27 06:42:31;;;;;;;4.18;3.63;;;5.30;68.90;;;;;;5019509;28;20052;-76
2021/01/27 06:45:22;;;;;;;5.88;4.15;;;5.30;68.90;;;;;;5015285;28;20021;-77
2021/01/27 06:48:00;;;;;;;5.30;4.07;;;5.30;68.90;;;;;;5018553;28;20478;-74
2021/01/27 06:50:47;;;;;;;4.65;3.60;;;5.20;68.80;;;;;;5028249;28;20091;-74
2021/01/27 06:53:55;;;;;;;5.20;4.03;;;5.20;68.90;;;;;;5023159;28;20022;-76
2021/01/27 06:56:52;;;;;;;6.10;4.60;;;5.10;68.80;;;;;;5021690;28;20087;-75
2021/01/27 06:59:29;;;;;;;4.32;3.78;;;5.10;68.90;;;;;;5001218;28;20590;-73
2021/01/27 07:02:21;;;;;;;5.32;4.32;;;5.10;68.70;;;;;;4964474;28;20586;-74
2021/01/27 07:05:24;;;;;;;5.70;4.22;;;5.00;68.80;;;;;;5006786;28;20034;-73
2021/01/27 07:08:14;;;;;;;4.47;3.83;;;5.00;68.80;;;;;;5005070;28;20052;-74
2021/01/27 07:10:50;;;;;;;4.57;3.85;;;5.00;68.70;;;;;;5006204;28;20042;-74
2021/01/27 07:13:52;;;;;;;6.05;4.43;;;4.90;68.60;;;;;;5007289;28;20022;-74
2021/01/27 07:16:33;;;;;;;4.63;3.67;;;4.90;68.70;;;;;;5003276;28;20118;-74
2021/01/27 07:19:43;;;;;;;5.38;3.75;;;4.80;68.70;;;;;;4980255;28;20026;-74
2021/01/27 07:22:16;;;;;;;4.57;3.80;;;4.80;68.80;;;;;;5001620;28;20036;-75
2021/01/27 07:24:57;;;;;;;4.93;4.35;;;4.80;68.70;;;;;;5005177;28;20026;-74
2021/01/27 07:27:22;;;;;;;4.47;3.88;;;4.80;68.80;;;;;;5007033;28;20030;-75
2021/01/27 07:29:52;;;;;;;5.40;4.30;;;4.70;68.90;;;;;;5006070;28;20526;-75
2021/01/27 07:32:26;;;;;;;4.63;3.78;;;4.70;69.00;;;;;;4999413;28;20439;-73
2021/01/27 07:34:59;;;;;;;6.13;3.83;;;4.60;69.20;;;;;;4994743;28;20034;-72
2021/01/27 07:37:36;;;;;;;4.10;3.63;;;4.70;69.20;;;;;;5003266;28;20064;-72
2021/01/27 07:40:14;;;;;;;4.05;3.65;;;4.70;69.30;;;;;;5006361;28;20061;-72
2021/01/27 07:43:02;;;;;;;4.60;4.20;;;4.70;69.30;;;;;;5005770;28;20033;-73
2021/01/27 07:45:34;;;;;;;5.28;4.15;;;4.70;69.40;;;;;;5005067;28;20081;-73
2021/01/27 07:48:24;;;;;;;5.20;4.65;;;4.70;69.30;;;;;;5000280;28;20030;-75
2021/01/27 07:50:54;;;;;;;4.75;4.25;;;4.70;69.30;;;;;;5006002;28;20034;-74
2021/01/27 07:53:43;;;;;;;4.10;3.28;;;4.70;69.40;;;;;;5003225;28;20109;-73
2021/01/27 07:56:17;;;;;;;5.43;4.55;;;4.70;69.40;;;;;;4999075;28;20022;-73
2021/01/27 07:58:57;;;;;;;4.47;3.65;;;4.70;69.40;;;;;;5003029;28;20046;-73
2021/01/27 08:01:32;;;;;;;4.50;4.03;;;4.80;69.70;;;;;;5004312;28;20121;-73
2021/01/27 08:04:18;;;;;;;4.05;3.75;;;4.80;69.80;;;;;;4998574;28;20257;-73
2021/01/27 08:06:46;;;;;;;4.30;3.60;;;4.80;69.90;;;;;;5004508;28;20078;-73
2021/01/27 08:09:21;;;;;;;4.55;3.97;;;4.90;70.50;;;;;;5003481;28;20623;-73
2021/01/27 08:11:47;;;;;;;3.85;3.47;;;4.90;69.90;;;;;;5004938;28;20499;-73
2021/01/27 08:14:14;;;;;;;3.95;3.60;;;4.90;70.00;;;;;;5000705;28;20083;-74
2021/01/27 08:16:44;;;;;;;3.55;3.25;;;4.90;70.00;;;;;;5004368;28;20038;-73
2021/01/27 08:19:10;;;;;;;;;;;5.00;70.10;;;;;;4974682;28;20038;-73
2021/01/27 08:21:44;;;;;;;3.67;3.22;;;5.10;70.40;;;;;;5004478;28;19925;-74
2021/01/27 08:24:36;;;;;;;4.78;3.88;;;5.10;70.20;;;;;;5002424;28;20041;-73
2021/01/27 08:27:10;;;;;;;4.07;3.33;;;5.20;70.20;;;;;;5000448;28;20037;-73
2021/01/27 08:29:41;;;;;;;4.22;3.83;;;5.30;70.10;;;;;;5004179;28;20088;-73
2021/01/27 08:32:24;;;;;;;3.55;3.17;;;5.30;70.00;;;;;;5003522;28;20187;-73
2021/01/27 08:34:51;;;;;;;3.83;3.33;;;5.30;70.10;;;;;;5003844;28;20388;-73
2021/01/27 08:37:20;;;;;;;4.10;3.60;;;5.40;69.90;;;;;;5004249;28;20053;-75
2021/01/27 08:39:46;;;;;;;3.35;2.88;;;5.40;69.90;;;;;;5003638;28;20042;-73
2021/01/27 08:42:21;;;;;;;4.35;3.67;;;5.50;69.90;;;;;;5005363;28;20026;-73
2021/01/27 08:44:47;;;;;;;3.90;3.28;;;5.60;69.90;;;;;;5004348;28;20606;-72
2021/01/27 08:47:15;;;;;;;4.05;3.38;;;5.50;69.70;;;;;;5005271;28;20124;-73
2021/01/27 08:50:10;;;;;;;3.42;2.85;;;5.60;69.70;;;;;;5008855;28;20306;-73
2021/01/27 08:52:42;;;;;;;3.47;2.92;;;5.50;69.50;;;;;;5006874;28;20065;-74
2021/01/27 08:55:31;;;;;;;3.63;2.67;;;5.50;69.50;;;;;;5006667;28;20065;-74
2021/01/27 08:58:20;;;;;;;3.28;2.45;;;5.60;69.60;;;;;;5003627;28;20038;-72
2021/01/27 09:00:46;;;;;;;3.70;2.80;;;5.70;69.70;;;;;;4990477;28;20038;-74
2021/01/27 09:03:36;;;;;;;3.17;2.72;;;5.70;69.70;;;;;;5004809;28;20137;-74
2021/01/27 09:06:18;;;;;;;2.63;2.33;;;5.60;69.60;;;;;;5004409;28;20030;-73
2021/01/27 09:08:44;;;;;;;2.95;2.25;;;5.70;69.70;;;;;;5002531;28;20034;-73
2021/01/27 09:11:10;;;;;;;2.80;2.45;;;5.70;69.60;;;;;;5007822;28;20096;-73
2021/01/27 09:13:41;;;;;;;2.65;2.20;;;5.70;69.70;;;;;;5015013;28;20539;-73
2021/01/27 09:16:15;;;;;;;2.50;2.17;;;5.80;69.80;;;;;;5054977;22;20048;-75
2021/01/27 09:18:41;;;;;;;1.67;1.58;;;5.70;69.70;;;;;;5023574;28;20453;-76
2021/01/27 09:21:15;;;;;;;4.18;2.90;;;5.80;69.80;;;;;;5028490;28;20087;-74
2021/01/27 09:23:43;;;;;;;2.60;2.08;;;5.80;69.90;;;;;;5026323;28;20038;-76
2021/01/27 09:26:30;;;;;;;3.17;2.22;;;5.90;69.90;;;;;;5020280;28;20047;-75
2021/01/27 09:29:08;;;;;;;3.45;2.70;;;5.90;70.00;;;;;;5002591;28;20749;-75
2021/01/27 09:31:33;;;;;;;3.35;2.70;;;5.90;69.90;;;;;;4992429;28;20031;-75
2021/01/27 09:33:59;;;;;;;2.70;2.00;;;6.00;69.90;;;;;;4990787;28;20085;-76
2021/01/27 09:36:27;;;;;;;2.55;2.00;;;6.00;69.90;;;;;;4992642;28;20056;-74
2021/01/27 09:38:57;;;;;;;2.83;2.35;;;6.00;69.90;;;;;;4992733;28;20038;-74
2021/01/27 09:41:28;;;;;;;3.13;2.55;;;6.10;69.90;;;;;;4991506;28;20053;-74
2021/01/27 09:43:55;;;;;;;2.67;2.10;;;6.10;69.90;;;;;;4991253;28;20030;-76
2021/01/27 09:46:25;;;;;;;2.50;1.98;;;6.20;69.90;;;;;;4990781;28;20030;-75
2021/01/27 09:48:57;;;;;;;2.25;2.05;;;6.30;69.90;;;;;;4993750;28;20110;-76
2021/01/27 09:51:25;;;;;;;3.00;2.30;;;6.20;69.80;;;;;;4991556;28;20040;-76
2021/01/27 09:53:56;;;;;;;2.90;2.25;;;6.30;69.80;;;;;;4995996;28;20050;-77
2021/01/27 09:56:22;;;;;;;4.63;2.33;;;6.30;69.60;;;;;;4991121;28;20053;-76
2021/01/27 09:58:48;;;;;;;2.65;2.42;;;6.30;69.50;;;;;;4991791;28;20080;-75
2021/01/27 10:01:18;;;;;;;3.08;2.63;;;6.30;69.40;;;;;;4995849;28;20049;-77
2021/01/27 10:03:48;;;;;;;3.47;2.55;;;6.30;69.40;;;;;;4991305;28;20503;-75
2021/01/27 10:07:03;;;;;;;1.98;1.77;;;6.40;69.40;;;;;;4989782;28;21041;-75
2021/01/27 10:09:40;;;;;;;2.55;2.10;;;6.30;69.40;;;;;;4909078;29;20044;-76
2021/01/27 10:12:19;;;;;;;2.13;1.80;;;6.40;69.40;;;;;;4910554;29;20139;-75
2021/01/27 10:14:47;;;;;;;1.98;1.77;;;6.40;69.40;;;;;;4967312;28;20041;-74
2021/01/27 10:17:13;;;;;;;2.13;1.92;;;6.40;69.40;;;;;;4989428;28;20507;-73
2021/01/27 10:19:52;;;;;;;3.05;2.20;;;6.40;69.40;;;;;;4990634;28;20042;-74
2021/01/27 10:22:27;;;;;;;2.17;1.92;;;6.40;69.40;;;;;;4991716;28;20559;-74
2021/01/27 10:25:00;;;;;;;2.40;2.10;;;6.30;69.30;;;;;;4993501;28;20034;-76
2021/01/27 10:27:35;;;;;;;2.85;2.17;;;6.40;69.40;;;;;;4991372;28;20026;-74
2021/01/27 10:30:05;;;;;;;2.20;1.80;;;6.40;69.40;;;;;;4990293;28;20029;-74
2021/01/27 10:32:39;;;;;;;1.83;1.60;;;6.30;69.30;;;;;;4994686;28;20065;-75
2021/01/27 10:35:24;;;;;;;2.65;2.00;;;6.40;69.40;;;;;;4990399;28;20475;-75
2021/01/27 10:38:14;;;;;;;1.70;1.60;;;6.40;69.50;;;;;;4991375;28;20659;-76
2021/01/27 10:41:00;;;;;;;1.60;1.38;;;6.40;69.50;;;;;;4990525;28;20101;-75
2021/01/27 10:43:28;;;;;;;2.38;1.70;;;6.40;69.40;;;;;;4997984;28;20569;-74
2021/01/27 10:45:54;;;;;;;1.75;1.55;;;6.40;69.40;;;;;;4993771;28;20092;-75
2021/01/27 10:48:20;;;;;;;1.90;1.70;;;6.40;69.50;;;;;;4989513;28;20030;-74
2021/01/27 10:50:51;;;;;;;2.10;1.90;;;6.40;69.60;;;;;;4994780;28;20057;-74
2021/01/27 10:53:19;;;;;;;1.75;1.65;;;6.40;69.80;;;;;;4991026;28;20092;-75
2021/01/27 10:55:52;;;;;;;2.95;2.20;;;6.50;69.90;;;;;;4990478;28;20095;-75
2021/01/27 10:58:17;;;;;;;2.25;1.70;;;6.50;69.90;;;;;;4989814;28;20026;-76
2021/01/27 11:00:44;;;;;;;2.10;1.90;;;6.50;69.90;;;;;;4992696;28;20041;-75
2021/01/27 11:03:11;;;;;;;1.92;1.73;;;6.60;69.90;;;;;;4996413;28;20034;-75
2021/01/27 11:05:36;;;;;;;2.08;1.88;;;6.60;69.80;;;;;;4990015;28;20041;-74
2021/01/27 11:08:04;;;;;;;1.92;1.73;;;6.60;69.80;;;;;;4996180;28;20039;-73
2021/01/27 11:10:30;;;;;;;1.85;1.58;;;6.60;69.70;;;;;;4991746;28;20110;-75
2021/01/27 11:12:55;;;;;;;2.08;1.80;;;6.60;69.70;;;;;;4992145;28;20113;-75
2021/01/27 11:15:22;;;;;;;1.63;1.52;;;6.70;69.70;;;;;;4993047;28;20034;-74
2021/01/27 11:17:49;;;;;;;2.53;2.03;;;6.60;69.60;;;;;;4989655;28;20121;-74
2021/01/27 11:20:18;;;;;;;1.90;1.67;;;6.60;69.50;;;;;;4989620;28;20038;-75
2021/01/27 11:22:45;;;;;;;1.85;1.65;;;6.70;69.50;;;;;;4992530;28;20037;-74
2021/01/27 11:25:14;;;;;;;2.38;2.00;;;6.60;69.50;;;;;;4989688;28;20509;-74
2021/01/27 11:27:39;;;;;;;2.38;1.77;;;6.70;69.50;;;;;;4989863;28;20027;-74
2021/01/27 11:30:05;;;;;;;1.75;1.60;;;6.80;69.60;;;;;;4996565;28;20030;-75
2021/01/27 11:32:31;;;;;;;3.00;1.92;;;6.60;69.50;;;;;;5006046;28;20041;-74
2021/01/27 11:34:56;;;;;;;1.75;1.65;;;6.70;69.50;;;;;;5007007;28;20399;-75
2021/01/27 11:37:21;;;;;;;2.33;1.80;;;6.70;69.50;;;;;;5006725;28;20045;-76
2021/01/27 11:39:47;;;;;;;1.98;1.77;;;6.70;69.50;;;;;;5008056;28;20441;-76
2021/01/27 11:42:12;;;;;;;2.08;1.85;;;6.70;69.50;;;;;;5007368;28;20034;-75
2021/01/27 11:44:38;;;;;;;2.05;1.85;;;6.70;69.50;;;;;;5006842;28;20565;-76
2021/01/27 11:47:03;;;;;;;5.07;1.55;;;6.70;69.40;;;;;;5006768;28;20026;-75
2021/01/27 11:49:29;;;;;;;1.92;1.73;;;6.70;69.40;;;;;;5006307;28;20407;-75
2021/01/27 11:51:56;;;;;;;2.17;1.98;;;6.70;69.50;;;;;;5008375;28;20034;-75
2021/01/27 11:54:22;;;;;;;1.88;1.58;;;6.70;69.50;;;;;;5006201;28;20037;-79
2021/01/27 11:56:47;;;;;;;1.73;1.45;;;6.80;69.50;;;;;;5007673;28;20030;-73
2021/01/27 11:59:13;;;;;;;2.15;1.92;;;6.60;69.30;;;;;;5007140;28;20506;-70
2021/01/27 12:01:39;;;;;;;1.92;1.73;;;6.60;69.30;;;;;;5006394;28;20037;-70
2021/01/27 12:04:05;;;;;;;1.55;1.40;;;6.70;69.40;;;;;;5006901;28;20506;-70
2021/01/27 12:06:30;;;;;;;1.73;1.63;;;6.70;69.40;;;;;;5007009;28;20041;-72
2021/01/27 12:08:56;;;;;;;1.73;1.63;;;6.60;69.40;;;;;;4999159;28;20038;-71
2021/01/27 12:11:22;;;;;;;1.60;1.45;;;6.60;69.40;;;;;;4998624;28;20038;-72
2021/01/27 12:13:47;;;;;;;2.17;1.85;;;6.60;69.50;;;;;;4996868;28;20030;-71
2021/01/27 12:16:13;;;;;;;1.60;1.45;;;6.60;69.50;;;;;;5001896;28;20034;-71
2021/01/27 12:18:39;;;;;;;2.10;1.88;;;6.60;69.40;;;;;;5006757;28;20045;-72
2021/01/27 12:21:05;;;;;;;2.10;1.90;;;6.60;69.40;;;;;;5006839;28;20525;-72
2021/01/27 12:23:30;;;;;;;1.77;1.65;;;6.70;69.40;;;;;;5005811;28;20042;-71
2021/01/27 12:25:56;;;;;;;1.50;1.30;;;6.60;69.30;;;;;;5007389;28;20026;-71
2021/01/27 12:28:21;;;;;;;1.60;1.50;;;6.60;69.40;;;;;;5007310;28;20034;-70
2021/01/27 12:30:47;;;;;;;1.88;1.75;;;6.60;69.40;;;;;;5006287;28;20634;-70
2021/01/27 12:33:13;;;;;;;2.25;2.05;;;6.60;69.40;;;;;;5005872;28;20034;-70
2021/01/27 12:35:38;;;;;;;1.52;1.42;;;6.60;69.70;;;;;;5006415;28;20054;-73
2021/01/27 12:38:04;;;;;;;2.35;1.75;;;6.70;70.20;;;;;;5006768;28;20034;-71
2021/01/27 12:40:30;;;;;;;1.70;1.55;;;6.70;70.60;;;;;;5006811;28;20030;-74
2021/01/27 12:42:56;;;;;;;2.30;1.50;;;6.70;71.00;;;;;;5007345;28;20033;-76
2021/01/27 12:45:24;;;;;;;3.53;1.55;;;6.80;71.40;;;;;;5008149;28;20030;-72
2021/01/27 12:47:49;;;;;;;2.20;1.73;;;6.90;71.30;;;;;;5008502;28;20038;-71
2021/01/27 12:50:16;;;;;;;2.00;1.80;;;7.00;71.10;;;;;;4998062;28;20056;-72
2021/01/27 12:52:41;;;;;;;2.35;2.10;;;7.10;70.60;;;;;;4995851;28;20080;-72
2021/01/27 12:55:12;;;;;;;2.05;1.92;;;7.10;70.20;;;;;;4994197;28;20054;-71
2021/01/27 12:57:42;;;;;;;2.53;2.33;;;7.10;69.90;;;;;;4995873;28;20034;-71
2021/01/27 13:00:11;;;;;;;1.95;1.70;;;7.20;69.60;;;;;;4976833;28;20448;-70
2021/01/27 13:02:36;;;;;;;1.98;1.80;;;7.20;69.50;;;;;;5001062;28;20116;-71
2021/01/27 13:05:02;;;;;;;1.98;1.77;;;7.10;69.30;;;;;;4994806;28;20679;-71
2021/01/27 13:07:28;;;;;;;2.13;1.92;;;7.10;69.30;;;;;;4996393;28;20041;-70
2021/01/27 13:09:53;;;;;;;2.25;2.08;;;7.10;69.30;;;;;;4994577;28;20125;-71
2021/01/27 13:12:19;;;;;;;2.05;1.85;;;7.30;69.40;;;;;;4995999;28;20033;-71
2021/01/27 13:14:44;;;;;;;2.22;2.03;;;7.00;69.20;;;;;;4995001;28;20030;-71
2021/01/27 13:17:10;;;;;;;2.50;2.30;;;7.00;69.20;;;;;;4995681;28;20678;-70
2021/01/27 13:19:35;;;;;;;2.47;2.25;;;7.10;69.30;;;;;;4996622;28;20052;-71
2021/01/27 13:22:01;;;;;;;1.83;1.67;;;7.00;69.20;;;;;;4997523;28;20491;-71
2021/01/27 13:24:26;;;;;;;2.35;2.15;;;6.90;69.20;;;;;;4996321;28;20041;-70
2021/01/27 13:26:51;;;;;;;2.95;2.50;;;6.90;69.30;;;;;;4994472;28;20027;-72